sensor_id;sensor_type;location;lat;lon;timestamp;temperature;humidity
9965;DHT22;5023;53.554;9.964;2023-05-10T00:03:34;15.20;75.50
9965;DHT22;5023;53.554;9.964;2023-05-10T00:08:36;15.10;77.30
9965;DHT22;5023;53.554;9.964;2023-05-10T00:13:38;15.00;78.30
9965;DHT22;5023;53.554;9.964;2023-05-10T00:18:41;15.00;79.90
9965;DHT22;5023;53.554;9.964;2023-05-10T00:23:43;15.00;81.00
9965;DHT22;5023;53.554;9.964;2023-05-10T00:28:45;14.90;82.20
9965;DHT22;5023;53.554;9.964;2023-05-10T00:33:48;14.90;83.80
9965;DHT22;5023;53.554;9.964;2023-05-10T00:38:50;14.80;85.20
9965;DHT22;5023;53.554;9.964;2023-05-10T00:43:52;14.70;86.90
9965;DHT22;5023;53.554;9.964;2023-05-10T00:48:56;14.70;88.40
9965;DHT22;5023;53.554;9.964;2023-05-10T00:53:58;14.70;90.10
9965;DHT22;5023;53.554;9.964;2023-05-10T00:59:01;14.60;90.70
9965;DHT22;5023;53.554;9.964;2023-05-10T01:04:04;14.50;91.40
9965;DHT22;5023;53.554;9.964;2023-05-10T01:09:06;14.50;92.10
9965;DHT22;5023;53.554;9.964;2023-05-10T01:14:09;14.50;93.00
9965;DHT22;5023;53.554;9.964;2023-05-10T01:19:18;14.40;93.80
9965;DHT22;5023;53.554;9.964;2023-05-10T01:24:42;14.40;94.60
9965;DHT22;5023;53.554;9.964;2023-05-10T01:35:54;14.30;96.20
9965;DHT22;5023;53.554;9.964;2023-05-10T01:41:08;14.20;97.00
9965;DHT22;5023;53.554;9.964;2023-05-10T01:46:24;14.10;98.20
9965;DHT22;5023;53.554;9.964;2023-05-10T01:51:35;14.00;99.10
9965;DHT22;5023;53.554;9.964;2023-05-10T01:56:39;14.00;99.90
9965;DHT22;5023;53.554;9.964;2023-05-10T02:01:43;14.10;99.90
9965;DHT22;5023;53.554;9.964;2023-05-10T02:06:48;14.00;99.90
9965;DHT22;5023;53.554;9.964;2023-05-10T02:11:51;14.00;99.90
9965;DHT22;5023;53.554;9.964;2023-05-10T02:16:55;13.90;99.90
9965;DHT22;5023;53.554;9.964;2023-05-10T02:22:00;13.90;99.90
9965;DHT22;5023;53.554;9.964;2023-05-10T02:27:04;13.90;99.90
9965;DHT22;5023;53.554;9.964;2023-05-10T02:32:09;13.80;99.90
9965;DHT22;5023;53.554;9.964;2023-05-10T02:37:14;13.70;99.90
9965;DHT22;5023;53.554;9.964;2023-05-10T02:42:19;13.70;99.90
9965;DHT22;5023;53.554;9.964;2023-05-10T02:47:21;13.60;99.90
9965;DHT22;5023;53.554;9.964;2023-05-10T02:52:28;13.50;99.90
9965;DHT22;5023;53.554;9.964;2023-05-10T02:57:33;13.50;99.90
9965;DHT22;5023;53.554;9.964;2023-05-10T03:02:36;13.40;99.90
9965;DHT22;5023;53.554;9.964;2023-05-10T03:07:39;13.30;99.90
9965;DHT22;5023;53.554;9.964;2023-05-10T03:12:52;13.40;99.90
9965;DHT22;5023;53.554;9.964;2023-05-10T03:18:06;13.40;99.90
9965;DHT22;5023;53.554;9.964;2023-05-10T03:23:13;13.30;99.90
9965;DHT22;5023;53.554;9.964;2023-05-10T03:28:26;13.20;99.90
9965;DHT22;5023;53.554;9.964;2023-05-10T03:33:29;13.20;99.90
9965;DHT22;5023;53.554;9.964;2023-05-10T03:38:32;13.20;99.90
9965;DHT22;5023;53.554;9.964;2023-05-10T03:43:35;13.10;99.90
9965;DHT22;5023;53.554;9.964;2023-05-10T03:48:37;13.10;99.90
9965;DHT22;5023;53.554;9.964;2023-05-10T03:53:41;13.10;99.90
9965;DHT22;5023;53.554;9.964;2023-05-10T03:58:43;13.10;99.90
9965;DHT22;5023;53.554;9.964;2023-05-10T04:03:45;13.10;99.90
9965;DHT22;5023;53.554;9.964;2023-05-10T04:08:48;13.10;99.90
9965;DHT22;5023;53.554;9.964;2023-05-10T04:13:50;13.00;99.90
9965;DHT22;5023;53.554;9.964;2023-05-10T04:18:52;13.00;99.90
9965;DHT22;5023;53.554;9.964;2023-05-10T04:23:56;13.10;99.90
9965;DHT22;5023;53.554;9.964;2023-05-10T04:28:59;13.10;99.90
9965;DHT22;5023;53.554;9.964;2023-05-10T04:34:01;13.10;99.90
9965;DHT22;5023;53.554;9.964;2023-05-10T04:39:04;13.10;99.90
9965;DHT22;5023;53.554;9.964;2023-05-10T04:44:06;13.00;99.90
9965;DHT22;5023;53.554;9.964;2023-05-10T04:49:08;13.00;99.90
9965;DHT22;5023;53.554;9.964;2023-05-10T04:54:12;13.10;99.90
9965;DHT22;5023;53.554;9.964;2023-05-10T04:59:13;13.00;99.90
9965;DHT22;5023;53.554;9.964;2023-05-10T05:04:15;13.10;99.90
9965;DHT22;5023;53.554;9.964;2023-05-10T05:09:19;13.20;99.90
9965;DHT22;5023;53.554;9.964;2023-05-10T05:14:21;13.10;99.90
9965;DHT22;5023;53.554;9.964;2023-05-10T05:19:22;13.10;99.90
9965;DHT22;5023;53.554;9.964;2023-05-10T05:24:26;13.20;99.90
9965;DHT22;5023;53.554;9.964;2023-05-10T05:29:28;13.30;99.90
9965;DHT22;5023;53.554;9.964;2023-05-10T05:34:30;13.30;99.90
9965;DHT22;5023;53.554;9.964;2023-05-10T05:39:35;13.20;99.90
9965;DHT22;5023;53.554;9.964;2023-05-10T05:44:37;13.30;99.90
9965;DHT22;5023;53.554;9.964;2023-05-10T05:49:39;13.60;99.90
9965;DHT22;5023;53.554;9.964;2023-05-10T05:54:43;13.70;99.90
9965;DHT22;5023;53.554;9.964;2023-05-10T05:59:45;13.70;99.90
9965;DHT22;5023;53.554;9.964;2023-05-10T06:04:48;13.80;99.90
9965;DHT22;5023;53.554;9.964;2023-05-10T06:09:51;13.90;99.90
9965;DHT22;5023;53.554;9.964;2023-05-10T06:14:53;14.00;99.90
9965;DHT22;5023;53.554;9.964;2023-05-10T06:19:55;14.00;99.90
9965;DHT22;5023;53.554;9.964;2023-05-10T06:24:58;14.20;99.90
9965;DHT22;5023;53.554;9.964;2023-05-10T06:30:02;14.40;99.90
9965;DHT22;5023;53.554;9.964;2023-05-10T06:35:08;14.50;99.90
9965;DHT22;5023;53.554;9.964;2023-05-10T06:40:12;14.70;99.90
9965;DHT22;5023;53.554;9.964;2023-05-10T06:45:14;14.60;99.90
9965;DHT22;5023;53.554;9.964;2023-05-10T06:50:16;14.50;99.90
9965;DHT22;5023;53.554;9.964;2023-05-10T06:55:20;14.60;99.90
9965;DHT22;5023;53.554;9.964;2023-05-10T07:00:22;14.60;99.90
9965;DHT22;5023;53.554;9.964;2023-05-10T07:05:24;14.80;99.90
9965;DHT22;5023;53.554;9.964;2023-05-10T07:10:29;15.10;99.90
9965;DHT22;5023;53.554;9.964;2023-05-10T07:15:34;15.10;99.90
9965;DHT22;5023;53.554;9.964;2023-05-10T07:20:36;15.30;99.90
9965;DHT22;5023;53.554;9.964;2023-05-10T07:25:40;15.40;99.90
9965;DHT22;5023;53.554;9.964;2023-05-10T07:30:42;15.40;99.90
9965;DHT22;5023;53.554;9.964;2023-05-10T07:35:44;15.70;99.90
9965;DHT22;5023;53.554;9.964;2023-05-10T07:40:48;15.70;99.90
9965;DHT22;5023;53.554;9.964;2023-05-10T07:45:50;15.90;99.90
9965;DHT22;5023;53.554;9.964;2023-05-10T07:50:52;16.00;99.90
9965;DHT22;5023;53.554;9.964;2023-05-10T07:55:58;16.00;99.90
9965;DHT22;5023;53.554;9.964;2023-05-10T08:01:00;16.10;99.90
9965;DHT22;5023;53.554;9.964;2023-05-10T08:06:02;16.40;99.90
9965;DHT22;5023;53.554;9.964;2023-05-10T08:11:06;16.40;99.90
9965;DHT22;5023;53.554;9.964;2023-05-10T08:16:07;16.50;99.90
9965;DHT22;5023;53.554;9.964;2023-05-10T08:21:10;16.40;99.90
9965;DHT22;5023;53.554;9.964;2023-05-10T08:26:13;16.60;99.90
9965;DHT22;5023;53.554;9.964;2023-05-10T08:31:15;16.60;99.90
9965;DHT22;5023;53.554;9.964;2023-05-10T08:36:18;16.60;99.90
9965;DHT22;5023;53.554;9.964;2023-05-10T08:41:24;16.70;99.90
9965;DHT22;5023;53.554;9.964;2023-05-10T08:46:27;16.80;99.90
9965;DHT22;5023;53.554;9.964;2023-05-10T08:51:31;16.90;99.90
9965;DHT22;5023;53.554;9.964;2023-05-10T08:56:36;17.10;99.90
9965;DHT22;5023;53.554;9.964;2023-05-10T09:01:38;17.20;99.90
9965;DHT22;5023;53.554;9.964;2023-05-10T09:06:41;17.30;99.90
9965;DHT22;5023;53.554;9.964;2023-05-10T09:11:44;17.20;99.90
9965;DHT22;5023;53.554;9.964;2023-05-10T09:16:46;17.20;99.90
9965;DHT22;5023;53.554;9.964;2023-05-10T09:21:49;17.20;99.90
9965;DHT22;5023;53.554;9.964;2023-05-10T09:26:52;17.10;99.90
9965;DHT22;5023;53.554;9.964;2023-05-10T09:31:54;17.20;99.90
9965;DHT22;5023;53.554;9.964;2023-05-10T09:36:58;17.10;99.90
9965;DHT22;5023;53.554;9.964;2023-05-10T09:42:04;17.00;99.90
9965;DHT22;5023;53.554;9.964;2023-05-10T09:47:09;16.90;99.90
9965;DHT22;5023;53.554;9.964;2023-05-10T09:52:11;16.70;99.90
9965;DHT22;5023;53.554;9.964;2023-05-10T09:57:20;16.60;99.90
9965;DHT22;5023;53.554;9.964;2023-05-10T10:02:28;16.50;99.90
9965;DHT22;5023;53.554;9.964;2023-05-10T10:07:30;16.20;99.90
9965;DHT22;5023;53.554;9.964;2023-05-10T10:12:34;16.00;99.90
9965;DHT22;5023;53.554;9.964;2023-05-10T10:17:36;15.80;99.90
9965;DHT22;5023;53.554;9.964;2023-05-10T10:22:40;15.60;99.90
9965;DHT22;5023;53.554;9.964;2023-05-10T10:27:49;15.50;99.90
9965;DHT22;5023;53.554;9.964;2023-05-10T10:33:25;15.50;99.90
9965;DHT22;5023;53.554;9.964;2023-05-10T10:38:37;15.50;99.90
9965;DHT22;5023;53.554;9.964;2023-05-10T10:43:41;15.40;99.90
9965;DHT22;5023;53.554;9.964;2023-05-10T10:48:47;15.20;99.90
9965;DHT22;5023;53.554;9.964;2023-05-10T10:53:50;15.10;99.90
9965;DHT22;5023;53.554;9.964;2023-05-10T10:58:59;15.20;99.90
9965;DHT22;5023;53.554;9.964;2023-05-10T11:04:18;15.20;99.90
9965;DHT22;5023;53.554;9.964;2023-05-10T11:09:24;15.20;99.90
9965;DHT22;5023;53.554;9.964;2023-05-10T11:14:31;15.10;99.90
9965;DHT22;5023;53.554;9.964;2023-05-10T11:19:33;15.10;99.90
9965;DHT22;5023;53.554;9.964;2023-05-10T11:24:35;15.10;99.90
9965;DHT22;5023;53.554;9.964;2023-05-10T11:29:39;15.10;99.90
9965;DHT22;5023;53.554;9.964;2023-05-10T11:34:41;15.20;99.90
9965;DHT22;5023;53.554;9.964;2023-05-10T11:39:46;15.20;99.90
9965;DHT22;5023;53.554;9.964;2023-05-10T11:44:49;15.30;99.90
9965;DHT22;5023;53.554;9.964;2023-05-10T11:49:51;15.20;99.90
9965;DHT22;5023;53.554;9.964;2023-05-10T11:54:54;15.00;99.90
9965;DHT22;5023;53.554;9.964;2023-05-10T11:59:58;15.00;99.90
9965;DHT22;5023;53.554;9.964;2023-05-10T12:05:00;15.20;99.90
9965;DHT22;5023;53.554;9.964;2023-05-10T12:10:06;15.20;99.90
9965;DHT22;5023;53.554;9.964;2023-05-10T12:15:18;15.30;99.90
9965;DHT22;5023;53.554;9.964;2023-05-10T12:20:21;15.40;99.90
9965;DHT22;5023;53.554;9.964;2023-05-10T12:25:29;15.40;99.90
9965;DHT22;5023;53.554;9.964;2023-05-10T12:30:33;15.40;99.90
9965;DHT22;5023;53.554;9.964;2023-05-10T12:35:44;15.40;99.90
9965;DHT22;5023;53.554;9.964;2023-05-10T12:40:47;15.30;99.90
9965;DHT22;5023;53.554;9.964;2023-05-10T12:45:50;15.30;99.90
9965;DHT22;5023;53.554;9.964;2023-05-10T12:50:52;15.30;99.90
9965;DHT22;5023;53.554;9.964;2023-05-10T12:55:54;15.60;99.90
9965;DHT22;5023;53.554;9.964;2023-05-10T13:00:57;15.70;99.90
9965;DHT22;5023;53.554;9.964;2023-05-10T13:06:00;15.80;99.90
9965;DHT22;5023;53.554;9.964;2023-05-10T13:11:02;15.90;99.90
9965;DHT22;5023;53.554;9.964;2023-05-10T13:16:06;15.80;99.90
9965;DHT22;5023;53.554;9.964;2023-05-10T13:21:08;15.80;99.90
9965;DHT22;5023;53.554;9.964;2023-05-10T13:26:11;15.70;99.90
9965;DHT22;5023;53.554;9.964;2023-05-10T13:31:15;15.60;99.90
9965;DHT22;5023;53.554;9.964;2023-05-10T13:36:17;15.80;99.90
9965;DHT22;5023;53.554;9.964;2023-05-10T13:41:19;16.00;99.90
9965;DHT22;5023;53.554;9.964;2023-05-10T13:46:22;16.20;99.90
9965;DHT22;5023;53.554;9.964;2023-05-10T13:51:25;16.20;99.90
9965;DHT22;5023;53.554;9.964;2023-05-10T13:56:27;16.40;99.90
9965;DHT22;5023;53.554;9.964;2023-05-10T14:01:31;16.20;99.90
9965;DHT22;5023;53.554;9.964;2023-05-10T14:06:33;16.50;99.90
9965;DHT22;5023;53.554;9.964;2023-05-10T14:11:35;16.60;99.90
9965;DHT22;5023;53.554;9.964;2023-05-10T14:16:40;16.60;99.90
9965;DHT22;5023;53.554;9.964;2023-05-10T14:21:43;16.70;99.90
9965;DHT22;5023;53.554;9.964;2023-05-10T14:26:45;16.80;99.90
9965;DHT22;5023;53.554;9.964;2023-05-10T14:31:55;16.80;99.90
9965;DHT22;5023;53.554;9.964;2023-05-10T14:37:00;16.80;99.90
9965;DHT22;5023;53.554;9.964;2023-05-10T14:42:02;16.70;99.90
9965;DHT22;5023;53.554;9.964;2023-05-10T14:47:05;16.60;99.90
9965;DHT22;5023;53.554;9.964;2023-05-10T14:52:07;16.80;99.90
9965;DHT22;5023;53.554;9.964;2023-05-10T14:57:09;16.60;99.90
9965;DHT22;5023;53.554;9.964;2023-05-10T15:02:13;16.60;99.90
9965;DHT22;5023;53.554;9.964;2023-05-10T15:07:15;16.50;99.90
9965;DHT22;5023;53.554;9.964;2023-05-10T15:12:18;16.30;99.90
9965;DHT22;5023;53.554;9.964;2023-05-10T15:17:22;16.50;99.90
9965;DHT22;5023;53.554;9.964;2023-05-10T15:22:34;16.70;99.90
9965;DHT22;5023;53.554;9.964;2023-05-10T15:27:47;16.70;99.90
9965;DHT22;5023;53.554;9.964;2023-05-10T15:32:51;16.70;99.90
9965;DHT22;5023;53.554;9.964;2023-05-10T15:37:53;16.80;99.90
9965;DHT22;5023;53.554;9.964;2023-05-10T15:42:55;16.80;99.90
9965;DHT22;5023;53.554;9.964;2023-05-10T15:47:58;16.80;99.90
9965;DHT22;5023;53.554;9.964;2023-05-10T15:53:00;16.80;99.90
9965;DHT22;5023;53.554;9.964;2023-05-10T15:58:02;16.70;99.90
9965;DHT22;5023;53.554;9.964;2023-05-10T16:03:06;16.70;99.90
9965;DHT22;5023;53.554;9.964;2023-05-10T16:08:08;16.50;99.90
9965;DHT22;5023;53.554;9.964;2023-05-10T16:13:10;16.40;99.90
9965;DHT22;5023;53.554;9.964;2023-05-10T16:18:16;16.30;99.90
9965;DHT22;5023;53.554;9.964;2023-05-10T16:23:18;16.40;99.90
9965;DHT22;5023;53.554;9.964;2023-05-10T16:28:20;16.40;99.90
9965;DHT22;5023;53.554;9.964;2023-05-10T16:33:24;16.30;99.90
9965;DHT22;5023;53.554;9.964;2023-05-10T16:38:26;16.30;99.90
9965;DHT22;5023;53.554;9.964;2023-05-10T16:43:28;16.30;99.90
9965;DHT22;5023;53.554;9.964;2023-05-10T16:48:32;16.30;99.90
9965;DHT22;5023;53.554;9.964;2023-05-10T16:53:36;16.40;99.90
9965;DHT22;5023;53.554;9.964;2023-05-10T16:58:39;16.30;99.90
9965;DHT22;5023;53.554;9.964;2023-05-10T17:03:42;16.20;99.90
9965;DHT22;5023;53.554;9.964;2023-05-10T17:08:44;16.20;99.90
9965;DHT22;5023;53.554;9.964;2023-05-10T17:13:46;16.30;99.90
9965;DHT22;5023;53.554;9.964;2023-05-10T17:18:49;16.20;99.90
9965;DHT22;5023;53.554;9.964;2023-05-10T17:23:51;16.10;99.90
9965;DHT22;5023;53.554;9.964;2023-05-10T17:28:53;16.10;99.90
9965;DHT22;5023;53.554;9.964;2023-05-10T17:33:56;16.00;99.90
9965;DHT22;5023;53.554;9.964;2023-05-10T17:38:58;15.70;99.90
9965;DHT22;5023;53.554;9.964;2023-05-10T17:44:00;15.60;99.90
9965;DHT22;5023;53.554;9.964;2023-05-10T17:49:03;15.40;99.90
9965;DHT22;5023;53.554;9.964;2023-05-10T17:54:05;15.30;99.90
9965;DHT22;5023;53.554;9.964;2023-05-10T17:59:07;15.30;99.90
9965;DHT22;5023;53.554;9.964;2023-05-10T18:04:11;15.30;99.90
9965;DHT22;5023;53.554;9.964;2023-05-10T18:09:13;15.20;99.90
9965;DHT22;5023;53.554;9.964;2023-05-10T18:14:15;15.20;99.90
9965;DHT22;5023;53.554;9.964;2023-05-10T18:19:19;15.10;99.90
9965;DHT22;5023;53.554;9.964;2023-05-10T18:24:21;15.00;99.90
9965;DHT22;5023;53.554;9.964;2023-05-10T18:29:23;14.80;99.90
9965;DHT22;5023;53.554;9.964;2023-05-10T18:34:27;14.70;99.90
9965;DHT22;5023;53.554;9.964;2023-05-10T18:39:29;14.50;99.90
9965;DHT22;5023;53.554;9.964;2023-05-10T18:44:31;14.60;99.90
9965;DHT22;5023;53.554;9.964;2023-05-10T18:49:35;14.60;99.90
9965;DHT22;5023;53.554;9.964;2023-05-10T18:54:38;14.50;99.90
9965;DHT22;5023;53.554;9.964;2023-05-10T18:59:40;14.40;99.90
9965;DHT22;5023;53.554;9.964;2023-05-10T19:04:43;14.40;99.90
9965;DHT22;5023;53.554;9.964;2023-05-10T19:09:45;14.30;99.90
9965;DHT22;5023;53.554;9.964;2023-05-10T19:14:47;14.40;99.90
9965;DHT22;5023;53.554;9.964;2023-05-10T19:19:51;14.30;99.90
9965;DHT22;5023;53.554;9.964;2023-05-10T19:24:53;14.30;99.90
9965;DHT22;5023;53.554;9.964;2023-05-10T19:29:54;14.20;99.90
9965;DHT22;5023;53.554;9.964;2023-05-10T19:34:58;14.20;99.90
9965;DHT22;5023;53.554;9.964;2023-05-10T19:40:00;14.20;99.90
9965;DHT22;5023;53.554;9.964;2023-05-10T19:45:02;14.10;99.90
9965;DHT22;5023;53.554;9.964;2023-05-10T19:50:08;14.10;99.90
9965;DHT22;5023;53.554;9.964;2023-05-10T19:55:36;14.10;99.90
9965;DHT22;5023;53.554;9.964;2023-05-10T20:00:39;14.10;99.90
9965;DHT22;5023;53.554;9.964;2023-05-10T20:05:42;14.10;99.90
9965;DHT22;5023;53.554;9.964;2023-05-10T20:10:44;14.00;99.90
9965;DHT22;5023;53.554;9.964;2023-05-10T20:15:46;13.90;99.90
9965;DHT22;5023;53.554;9.964;2023-05-10T20:20:53;13.80;99.90
9965;DHT22;5023;53.554;9.964;2023-05-10T20:25:55;13.70;99.90
9965;DHT22;5023;53.554;9.964;2023-05-10T20:30:57;13.70;99.90
9965;DHT22;5023;53.554;9.964;2023-05-10T20:36:02;13.70;99.90
9965;DHT22;5023;53.554;9.964;2023-05-10T20:41:15;13.70;99.90
9965;DHT22;5023;53.554;9.964;2023-05-10T20:46:17;13.50;99.90
9965;DHT22;5023;53.554;9.964;2023-05-10T20:51:21;13.50;99.90
9965;DHT22;5023;53.554;9.964;2023-05-10T20:56:23;13.50;99.90
9965;DHT22;5023;53.554;9.964;2023-05-10T21:01:26;13.60;99.90
9965;DHT22;5023;53.554;9.964;2023-05-10T21:06:30;13.50;99.90
9965;DHT22;5023;53.554;9.964;2023-05-10T21:11:40;13.20;99.90
9965;DHT22;5023;53.554;9.964;2023-05-10T21:16:42;13.00;99.90
9965;DHT22;5023;53.554;9.964;2023-05-10T21:21:45;13.10;99.90
9965;DHT22;5023;53.554;9.964;2023-05-10T21:26:48;13.10;99.90
9965;DHT22;5023;53.554;9.964;2023-05-10T21:31:49;13.20;99.90
9965;DHT22;5023;53.554;9.964;2023-05-10T21:36:53;13.30;99.90
9965;DHT22;5023;53.554;9.964;2023-05-10T21:42:14;13.10;99.90
9965;DHT22;5023;53.554;9.964;2023-05-10T21:47:16;12.90;99.90
9965;DHT22;5023;53.554;9.964;2023-05-10T21:52:20;12.80;99.90
9965;DHT22;5023;53.554;9.964;2023-05-10T21:57:22;12.70;99.90
9965;DHT22;5023;53.554;9.964;2023-05-10T22:02:23;12.80;99.90
9965;DHT22;5023;53.554;9.964;2023-05-10T22:07:27;13.00;99.90
9965;DHT22;5023;53.554;9.964;2023-05-10T22:12:29;13.00;99.90
9965;DHT22;5023;53.554;9.964;2023-05-10T22:17:31;13.10;99.90
9965;DHT22;5023;53.554;9.964;2023-05-10T22:22:36;13.10;99.90
9965;DHT22;5023;53.554;9.964;2023-05-10T22:27:38;13.00;99.90
9965;DHT22;5023;53.554;9.964;2023-05-10T22:32:40;13.00;99.90
9965;DHT22;5023;53.554;9.964;2023-05-10T22:37:43;12.90;99.90
9965;DHT22;5023;53.554;9.964;2023-05-10T22:42:46;13.00;99.90
9965;DHT22;5023;53.554;9.964;2023-05-10T22:47:47;12.90;99.90
9965;DHT22;5023;53.554;9.964;2023-05-10T22:52:51;12.90;99.90
9965;DHT22;5023;53.554;9.964;2023-05-10T22:57:53;12.90;99.90
9965;DHT22;5023;53.554;9.964;2023-05-10T23:02:55;12.90;99.90
9965;DHT22;5023;53.554;9.964;2023-05-10T23:07:58;13.00;99.90
9965;DHT22;5023;53.554;9.964;2023-05-10T23:13:00;13.00;99.90
9965;DHT22;5023;53.554;9.964;2023-05-10T23:18:02;13.00;99.90
9965;DHT22;5023;53.554;9.964;2023-05-10T23:23:06;12.90;99.90
9965;DHT22;5023;53.554;9.964;2023-05-10T23:28:11;12.90;99.90
9965;DHT22;5023;53.554;9.964;2023-05-10T23:33:13;12.90;99.90
9965;DHT22;5023;53.554;9.964;2023-05-10T23:38:16;13.00;99.90
9965;DHT22;5023;53.554;9.964;2023-05-10T23:43:18;12.90;99.90
9965;DHT22;5023;53.554;9.964;2023-05-10T23:48:21;12.90;99.90
9965;DHT22;5023;53.554;9.964;2023-05-10T23:53:25;12.90;99.90
9965;DHT22;5023;53.554;9.964;2023-05-10T23:58:27;12.80;99.90
